Terminal Aerodrome Forecast
Issued by NWS Tuscon, AZ

Home | Current Version | Previous Version | Text Only | Print | Product List | Glossary On
Versions: 1 2 3 4 5 6 7 8 9 10 11 12 13 14 15 16 17 18 19 20
000
FTUS45 KTWC 012300
TAFDUG
TAF
KDUG 012338Z 0200/0224 28008KT P6SM VCTS FEW050 SCT070CB SCT130
      TEMPO 0200/0202 VRB15G35KT 5SM TSRA SCT035 BKN050CB
     FM020200 35006KT P6SM SCT060 SCT130 BKN200
     FM020700 VRB04KT P6SM SCT130 SCT200
     FM021700 15006KT P6SM SCT070 SCT200
     FM022000 18011KT P6SM VCTS SCT070CB SCT120=

USA.gov is the U.S. government's official web portal to all federal, state and local government web resources and services.